Moses Lake, WA

7:04 AM PDT en Septiembre 02, 2014 (GMT -0700)
Grant County International | Change Station
CLOSE
Current Station
Aeropuerto
Location: Moses Lake,
Altura: 1184 ft
Estaciones meteorológicas cercanas

Alt 1184 ft 47.21 °N, 119.32 °W | Updated 12 minutes ago

Clear
Despejado
52 ° F
Sensación térmica 52 ° F
N
4
Viento Variable Viento desde SSE

Hoy
Alta -- | Baja -- ° F
--% Posibilidad de precipitaciones
Ayer
Alta -- | Baja -- ° F
Precip. -- pul
6:17 AM 7:35 PM
Cuarto creciente, 51% visible
Presión 29.84 pul
Visibilidad 10.0 Millas
Nubes Despejado
Punto de rocío 45 ° F
Humedad 77%
Precipitaciones 0.00 pul
Espesor de la nieve No disponible.
UV 0 de una escala de 12
Polen 4.30 de una escala de 12
Calidad del aire No disponible.
Flu Activity No disponible.
METAR KMWH 021352Z 15003KT 10SM CLR 11/07 A2985 RMK AO2 SLP104 T01110072

More Conditions Fewer Conditions

Presión 29.84 pul
Visibilidad 10.0 Millas
Nubes Despejado
Punto de rocío 45 ° F
Humedad 77%
Precipitaciones 0.00 pul
Espesor de la nieve No disponible.
UV 0 de una escala de 12
Polen 4.30 de una escala de 12
Calidad del aire No disponible.
Flu Activity No disponible.
METAR KMWH 021352Z 15003KT 10SM CLR 11/07 A2985 RMK AO2 SLP104 T01110072

More Conditions Fewer Conditions

10-Day Weather Forecast

Almanac

Astronomía

Sep. 02, 2014 Salida Puesta
Hora real 6:17 AM PDT 7:35 PM PDT
Crepúsculo civil 5:46 AM PDT 8:06 PM PDT
Crepúsculo náutico 5:08 AM PDT 8:44 PM PDT
Crepúsculo astronómico 4:27 AM PDT 9:25 PM PDT
Luna 2:35 PM PDT Sin puesta de luna
Horas de luz 14h 20m
Horas de luz
13h 17m
Tomorrow will be 3m 17s shorter.
Cuarto creciente, 51% of the Moon is Illuminated
Hoy
Cuarto creciente
Sep 8
Luna llena
Sep 15
Cuarto menguante
Sep 24
Nueva
Oct 1
Cuarto creciente

Extremos de hoy

Máximos del estado Bajos del estado

Community

WunderPhotos

Upload Photos

1,749,670 ¡fotos cargadas!

WunderBlogs® & News

Nearby

Grosos de nieve

Estación Profundido Altura
Upper Wheeler 0 in 4400 ft
Grouse Camp 0 in 5380 ft
Blewett Pass 0 in 4270 ft
Moses Mountain 1 in 5300 ft
Sasse Ridge 0 in 4200 ft

Actividad de terremotos

Ciudad Distance Mag. Tiempo y dato
No hay informes recientes de la actividad sísmica.
Magnitud mínima muestra es 2,5.

Temperaturas de aguas costeras

Lugar Temperatura
Sin partes meteorológicos de las estaciones

Estaciones meteorológicas cercanas